createdAt,value
2023-04-17T00:00:36.036Z,23.05
2023-04-17T00:02:36.118Z,23.08
2023-04-17T00:04:36.209Z,23.03
2023-04-17T00:06:36.034Z,23.01
2023-04-17T00:08:36.088Z,23.09
2023-04-17T00:10:35.994Z,23.13
2023-04-17T00:12:36.092Z,23.16
2023-04-17T00:14:36.048Z,23.09
2023-04-17T00:16:36.055Z,23.08
2023-04-17T00:18:36.051Z,23.09
2023-04-17T00:20:36.021Z,23.13
2023-04-17T00:22:35.987Z,23.06
2023-04-17T00:24:36.023Z,23.15
2023-04-17T00:26:36.122Z,23.10
2023-04-17T00:28:36.041Z,23.07
2023-04-17T00:30:36.061Z,23.13
2023-04-17T00:32:36.124Z,23.11
2023-04-17T00:34:36.019Z,23.08
2023-04-17T00:36:36.096Z,23.04
2023-04-17T00:38:36.057Z,23.06
2023-04-17T00:40:36.109Z,23.11
2023-04-17T00:42:36.104Z,23.05
2023-04-17T00:44:36.087Z,23.12
2023-04-17T00:46:36.086Z,23.05
2023-04-17T00:48:36.048Z,23.06
2023-04-17T00:50:36.095Z,23.05
2023-04-17T00:52:36.068Z,23.09
2023-04-17T00:54:36.096Z,23.04
2023-04-17T00:56:36.108Z,23.06
2023-04-17T00:58:35.994Z,23.14
2023-04-17T01:00:36.121Z,23.05
2023-04-17T01:02:36.264Z,23.11
2023-04-17T01:04:36.078Z,23.10
2023-04-17T01:06:35.997Z,23.04
2023-04-17T01:08:36.137Z,23.10
2023-04-17T01:10:36.128Z,23.03
2023-04-17T01:12:36.141Z,23.10
2023-04-17T01:14:36.170Z,22.99
2023-04-17T01:16:36.145Z,23.09
2023-04-17T01:18:36.003Z,23.05
2023-04-17T01:20:36.064Z,23.10
2023-04-17T01:22:36.111Z,22.99
2023-04-17T01:24:36.084Z,23.10
2023-04-17T01:26:36.142Z,23.06
2023-04-17T01:28:36.149Z,23.07
2023-04-17T01:30:36.197Z,23.08
2023-04-17T01:32:36.238Z,23.02
2023-04-17T01:34:37.568Z,23.10
2023-04-17T01:36:36.113Z,23.12
2023-04-17T01:38:36.081Z,23.12
2023-04-17T01:40:36.190Z,23.05
2023-04-17T01:42:36.098Z,23.12
2023-04-17T01:44:36.120Z,23.10
2023-04-17T01:46:36.218Z,23.06
2023-04-17T01:48:36.201Z,23.09
2023-04-17T01:50:36.151Z,23.06
2023-04-17T01:52:36.148Z,23.09
2023-04-17T01:54:36.169Z,23.05
2023-04-17T01:56:36.164Z,23.11
2023-04-17T01:58:36.193Z,23.09
2023-04-17T02:00:36.187Z,23.03
2023-04-17T02:02:36.180Z,23.02
2023-04-17T02:04:36.199Z,23.11
2023-04-17T02:06:36.162Z,23.08
2023-04-17T02:08:36.222Z,23.11
2023-04-17T02:10:36.133Z,23.08
2023-04-17T02:12:36.084Z,23.04
2023-04-17T02:14:36.206Z,23.06
2023-04-17T02:16:36.232Z,23.08
2023-04-17T02:18:36.069Z,23.07
2023-04-17T02:20:36.141Z,23.11
2023-04-17T02:22:36.124Z,23.03
2023-04-17T02:24:36.200Z,23.04
2023-04-17T02:26:36.146Z,23.10
2023-04-17T02:28:36.230Z,23.05
2023-04-17T02:30:36.181Z,23.01
2023-04-17T02:32:36.057Z,23.05
2023-04-17T02:34:36.210Z,23.10
2023-04-17T02:36:36.120Z,23.13
2023-04-17T02:38:36.244Z,23.03
2023-04-17T02:40:36.084Z,23.04
2023-04-17T02:42:36.200Z,23.06
2023-04-17T02:44:36.205Z,23.05
2023-04-17T02:46:36.221Z,23.08
2023-04-17T02:48:36.155Z,23.07
2023-04-17T02:50:36.149Z,22.76
2023-04-17T02:52:36.252Z,23.08
2023-04-17T02:54:36.160Z,23.05
2023-04-17T02:56:36.178Z,23.02
2023-04-17T02:58:36.239Z,23.05
2023-04-17T03:00:36.269Z,23.09
2023-04-17T03:02:36.415Z,23.02
2023-04-17T03:04:36.145Z,23.03
2023-04-17T03:06:36.204Z,23.06
2023-04-17T03:08:36.152Z,23.02
2023-04-17T03:10:36.237Z,23.11
2023-04-17T03:12:36.213Z,23.03
2023-04-17T03:14:36.249Z,23.05
2023-04-17T03:16:36.319Z,23.05
2023-04-17T03:18:36.250Z,23.04
2023-04-17T03:20:36.223Z,23.01
2023-04-17T03:22:36.273Z,23.03
2023-04-17T03:24:36.220Z,23.03
2023-04-17T03:26:36.215Z,23.06
2023-04-17T03:28:36.302Z,23.12
2023-04-17T03:30:36.283Z,22.98
2023-04-17T03:32:36.343Z,23.03
2023-04-17T03:34:36.277Z,23.12
2023-04-17T03:36:36.195Z,23.05
2023-04-17T03:38:36.218Z,23.16
2023-04-17T03:40:36.257Z,22.98
2023-04-17T03:42:36.223Z,23.05
2023-04-17T03:44:36.203Z,23.10
2023-04-17T03:46:36.254Z,23.01
2023-04-17T03:48:36.272Z,23.01
2023-04-17T03:50:36.276Z,22.99
2023-04-17T03:52:36.262Z,22.88
2023-04-17T03:54:36.321Z,23.04
2023-04-17T03:56:36.286Z,23.04
2023-04-17T03:58:36.204Z,23.04
2023-04-17T04:00:36.307Z,23.00
2023-04-17T04:02:36.396Z,23.05
2023-04-17T04:04:36.351Z,23.03
2023-04-17T04:06:36.242Z,23.02
2023-04-17T04:08:36.322Z,23.03
2023-04-17T04:10:36.238Z,23.01
2023-04-17T04:12:36.290Z,23.09
2023-04-17T04:14:36.308Z,22.98
2023-04-17T04:16:36.352Z,22.99
2023-04-17T04:18:36.313Z,22.99
2023-04-17T04:20:36.311Z,22.99
2023-04-17T04:22:36.307Z,22.98
2023-04-17T04:24:36.298Z,23.03
2023-04-17T04:26:36.367Z,22.95
2023-04-17T04:28:36.277Z,22.91
2023-04-17T04:30:36.321Z,22.82
2023-04-17T04:32:36.355Z,22.82
2023-04-17T04:34:36.320Z,22.69
2023-04-17T04:36:36.481Z,22.56
2023-04-17T04:38:36.350Z,22.95
2023-04-17T04:40:36.302Z,22.95
2023-04-17T04:42:36.261Z,22.85
2023-04-17T04:44:36.320Z,22.88
2023-04-17T04:46:36.253Z,22.96
2023-04-17T04:48:36.331Z,22.95
2023-04-17T04:50:36.403Z,22.98
2023-04-17T04:52:36.347Z,22.95
2023-04-17T04:54:36.399Z,22.96
2023-04-17T04:56:36.234Z,22.94
2023-04-17T04:58:36.317Z,22.96
2023-04-17T05:00:36.454Z,22.96
2023-04-17T05:02:36.372Z,22.96
2023-04-17T05:04:36.452Z,23.01
2023-04-17T05:06:36.417Z,22.96
2023-04-17T05:08:36.374Z,22.96
2023-04-17T05:10:36.305Z,22.96
2023-04-17T05:12:36.272Z,22.95
2023-04-17T05:14:36.315Z,22.99
2023-04-17T05:16:36.393Z,22.99
2023-04-17T05:18:36.151Z,22.91
2023-04-17T05:20:36.380Z,23.01
2023-04-17T05:22:36.343Z,23.03
2023-04-17T05:24:36.316Z,22.97
2023-04-17T05:26:36.451Z,23.01
2023-04-17T05:28:36.394Z,23.03
2023-04-17T05:30:36.394Z,23.09
2023-04-17T05:32:36.360Z,23.10
2023-04-17T05:34:36.412Z,23.18
2023-04-17T05:36:36.329Z,23.09
2023-04-17T05:38:36.395Z,23.11
2023-04-17T05:40:36.397Z,23.04
2023-04-17T05:42:36.358Z,23.12
2023-04-17T05:44:36.451Z,23.06
2023-04-17T05:46:36.416Z,23.13
2023-04-17T05:48:36.350Z,23.10
2023-04-17T05:50:36.619Z,23.18
2023-04-17T05:52:38.052Z,23.01
2023-04-17T05:54:36.468Z,23.18
2023-04-17T05:56:36.354Z,23.23
2023-04-17T05:58:36.431Z,23.24
2023-04-17T06:00:36.369Z,23.29
2023-04-17T06:02:36.449Z,23.40
2023-04-17T06:04:36.813Z,23.31
2023-04-17T06:06:36.432Z,23.26
2023-04-17T06:08:36.367Z,23.30
2023-04-17T06:10:36.363Z,23.26
2023-04-17T06:12:36.393Z,23.27
2023-04-17T06:14:36.419Z,23.26
2023-04-17T06:16:36.489Z,23.29
2023-04-17T06:18:36.469Z,23.43
2023-04-17T06:20:37.998Z,23.39
2023-04-17T06:22:36.449Z,23.51
2023-04-17T06:24:36.347Z,23.45
2023-04-17T06:26:36.398Z,23.53
2023-04-17T06:28:36.419Z,23.57
2023-04-17T06:30:36.458Z,23.59
2023-04-17T06:32:36.501Z,23.65
2023-04-17T06:34:41.306Z,23.68
2023-04-17T06:36:36.404Z,23.77
2023-04-17T06:38:36.461Z,23.81
2023-04-17T06:40:36.468Z,23.84
2023-04-17T06:42:36.410Z,23.96
2023-04-17T06:44:36.497Z,23.94
2023-04-17T06:46:36.388Z,24.02
2023-04-17T06:48:36.411Z,24.04
2023-04-17T06:50:36.459Z,24.10
2023-04-17T06:52:36.401Z,24.10
2023-04-17T06:54:36.458Z,24.17
2023-04-17T06:56:36.399Z,24.20
2023-04-17T06:58:36.441Z,24.21
2023-04-17T07:00:36.415Z,24.28
2023-04-17T07:02:36.603Z,24.37
2023-04-17T07:04:36.522Z,24.36
2023-04-17T07:06:36.496Z,24.37
2023-04-17T07:08:36.477Z,24.27
2023-04-17T07:10:36.570Z,24.35
2023-04-17T07:12:36.548Z,24.39
2023-04-17T07:14:36.332Z,24.41
2023-04-17T07:16:36.427Z,24.47
2023-04-17T07:18:36.498Z,24.39
2023-04-17T07:20:36.542Z,24.43
2023-04-17T07:22:36.468Z,24.55
2023-04-17T07:24:36.525Z,24.52
2023-04-17T07:26:36.522Z,24.56
2023-04-17T07:28:36.461Z,24.65
2023-04-17T07:30:36.461Z,24.66
2023-04-17T07:32:36.603Z,24.66
2023-04-17T07:34:36.479Z,24.66
2023-04-17T07:36:36.473Z,24.57
2023-04-17T07:38:36.583Z,24.64
2023-04-17T07:40:36.526Z,24.55
2023-04-17T07:42:36.479Z,24.57
2023-04-17T07:44:36.453Z,24.62
2023-04-17T07:46:36.604Z,24.59
2023-04-17T07:48:36.546Z,24.60
2023-04-17T07:50:36.564Z,24.59
2023-04-17T07:52:36.497Z,24.64
2023-04-17T07:54:36.572Z,24.60
2023-04-17T07:56:36.496Z,24.66
2023-04-17T07:58:36.498Z,24.66
2023-04-17T08:00:36.558Z,24.69
2023-04-17T08:02:36.663Z,24.82
2023-04-17T08:04:36.617Z,24.76
2023-04-17T08:06:36.487Z,24.86
2023-04-17T08:08:36.502Z,24.93
2023-04-17T08:10:36.515Z,24.90
2023-04-17T08:12:36.510Z,24.95
2023-04-17T08:14:36.440Z,25.01
2023-04-17T08:16:36.603Z,25.09
2023-04-17T08:18:36.495Z,25.23
2023-04-17T08:20:36.529Z,25.29
2023-04-17T08:22:36.409Z,25.37
2023-04-17T08:24:36.507Z,25.76
2023-04-17T08:26:36.458Z,25.53
2023-04-17T08:28:36.611Z,25.65
2023-04-17T08:30:36.603Z,25.80
2023-04-17T08:32:36.674Z,25.79
2023-04-17T08:34:36.528Z,25.90
2023-04-17T08:36:36.538Z,25.28
2023-04-17T08:38:36.602Z,25.09
2023-04-17T08:40:36.572Z,25.08
2023-04-17T08:42:36.616Z,25.58
2023-04-17T08:44:36.544Z,25.52
2023-04-17T08:46:36.738Z,25.52
2023-04-17T08:48:36.615Z,25.56
2023-04-17T08:50:36.628Z,25.63
2023-04-17T08:52:36.483Z,25.47
2023-04-17T08:54:36.631Z,25.54
2023-04-17T08:56:36.594Z,25.64
2023-04-17T08:58:36.653Z,25.52
2023-04-17T09:00:36.628Z,25.52
2023-04-17T09:02:36.690Z,25.53
2023-04-17T09:04:36.666Z,25.65
2023-04-17T09:06:36.597Z,25.33
2023-04-17T09:08:36.630Z,25.56
2023-04-17T09:10:36.692Z,25.21
2023-04-17T09:12:36.633Z,24.75
2023-04-17T09:14:36.569Z,24.61
2023-04-17T09:16:36.643Z,24.41
2023-04-17T09:18:36.629Z,24.95
2023-04-17T09:20:36.516Z,25.23
2023-04-17T09:22:36.684Z,25.31
2023-04-17T09:24:36.647Z,25.11
2023-04-17T09:26:36.672Z,25.11
2023-04-17T09:28:36.589Z,25.09
2023-04-17T09:30:36.576Z,25.17
2023-04-17T09:32:36.646Z,25.26
2023-04-17T09:34:36.621Z,25.18
2023-04-17T09:36:36.601Z,25.10
2023-04-17T09:38:36.632Z,25.11
2023-04-17T09:40:36.630Z,25.08
2023-04-17T09:42:36.653Z,24.97
2023-04-17T09:44:36.624Z,24.90
2023-04-17T09:46:36.644Z,24.95
2023-04-17T09:48:36.638Z,24.88
2023-04-17T09:50:38.659Z,24.85
2023-04-17T09:52:36.621Z,24.73
2023-04-17T09:54:36.628Z,24.66
2023-04-17T09:56:36.681Z,24.71
2023-04-17T09:58:36.675Z,24.72
2023-04-17T10:00:36.795Z,24.59
2023-04-17T10:02:36.814Z,24.53
2023-04-17T10:04:36.696Z,24.65
2023-04-17T10:06:36.621Z,24.67
2023-04-17T10:08:36.644Z,24.58
2023-04-17T10:10:36.712Z,24.63
2023-04-17T10:12:36.743Z,24.66
2023-04-17T10:14:36.653Z,24.83
2023-04-17T10:16:36.687Z,24.95
2023-04-17T10:18:36.678Z,24.96
2023-04-17T10:20:36.599Z,24.48
2023-04-17T10:22:36.677Z,24.21
2023-04-17T10:24:36.711Z,24.04
2023-04-17T10:26:36.698Z,24.35
2023-04-17T10:28:36.708Z,24.48
2023-04-17T10:30:36.700Z,24.53
2023-04-17T10:32:36.688Z,24.67
2023-04-17T10:34:36.625Z,24.69
2023-04-17T10:36:36.741Z,24.87
2023-04-17T10:38:36.759Z,25.17
2023-04-17T10:40:36.744Z,25.29
2023-04-17T10:42:36.737Z,25.40
2023-04-17T10:44:36.771Z,25.58
2023-04-17T10:46:36.744Z,25.84
2023-04-17T10:48:36.909Z,26.12
2023-04-17T10:50:36.718Z,26.31
2023-04-17T10:52:36.768Z,26.53
2023-04-17T10:54:36.722Z,25.01
2023-04-17T10:56:36.690Z,24.97
2023-04-17T10:58:36.548Z,24.99
2023-04-17T11:00:36.701Z,24.95
2023-04-17T11:02:36.733Z,25.17
2023-04-17T11:04:36.765Z,25.54
2023-04-17T11:06:36.684Z,26.08
2023-04-17T11:08:36.694Z,26.51
2023-04-17T11:10:36.749Z,25.01
2023-04-17T11:12:36.730Z,25.08
2023-04-17T11:14:36.727Z,24.97
2023-04-17T11:16:36.831Z,24.98
2023-04-17T11:18:36.759Z,24.95
2023-04-17T11:20:36.769Z,22.68
2023-04-17T11:22:36.686Z,24.95
2023-04-17T11:24:36.734Z,25.03
2023-04-17T11:26:36.770Z,24.96
2023-04-17T11:28:36.714Z,25.01
2023-04-17T11:30:36.792Z,25.28
2023-04-17T11:32:36.806Z,24.86
2023-04-17T11:34:36.827Z,24.43
2023-04-17T11:36:36.688Z,24.44
2023-04-17T11:38:36.777Z,24.99
2023-04-17T11:40:36.808Z,25.40
2023-04-17T11:42:36.799Z,25.52
2023-04-17T11:44:36.733Z,25.52
2023-04-17T11:46:36.885Z,25.63
2023-04-17T11:48:36.794Z,25.59
2023-04-17T11:50:36.737Z,25.57
2023-04-17T11:52:36.753Z,25.45
2023-04-17T11:54:36.757Z,25.37
2023-04-17T11:56:36.789Z,25.23
2023-04-17T11:58:37.850Z,24.97
2023-04-17T12:00:36.783Z,25.33
2023-04-17T12:02:36.891Z,25.32
2023-04-17T12:04:37.191Z,25.46
2023-04-17T12:06:36.723Z,25.43
2023-04-17T12:08:36.807Z,25.43
2023-04-17T12:10:36.820Z,25.42
2023-04-17T12:12:36.853Z,25.28
2023-04-17T12:14:36.792Z,25.23
2023-04-17T12:16:36.865Z,25.21
2023-04-17T12:18:36.875Z,25.09
2023-04-17T12:20:36.789Z,25.07
2023-04-17T12:22:36.807Z,25.08
2023-04-17T12:24:36.721Z,25.06
2023-04-17T12:26:36.842Z,25.09
2023-04-17T12:28:36.850Z,25.21
2023-04-17T12:30:36.799Z,25.23
2023-04-17T12:32:36.889Z,25.29
2023-04-17T12:34:36.771Z,25.32
2023-04-17T12:36:36.818Z,25.39
2023-04-17T12:38:36.889Z,25.37
2023-04-17T12:40:36.864Z,25.37
2023-04-17T12:42:48.264Z,25.28
2023-04-17T12:44:36.864Z,25.12
2023-04-17T12:46:36.861Z,25.05
2023-04-17T12:48:36.822Z,24.94
2023-04-17T12:50:36.822Z,24.67
2023-04-17T12:52:36.866Z,24.66
2023-04-17T12:54:36.752Z,24.50
2023-04-17T12:56:36.872Z,24.47
2023-04-17T12:58:36.881Z,24.41
2023-04-17T13:00:36.875Z,24.36
2023-04-17T13:02:37.165Z,24.38
2023-04-17T13:04:36.830Z,24.38
2023-04-17T13:06:36.864Z,24.64
2023-04-17T13:08:36.884Z,24.60
2023-04-17T13:10:36.838Z,24.66
2023-04-17T13:12:36.821Z,24.83
2023-04-17T13:14:36.886Z,24.97
2023-04-17T13:16:36.905Z,25.09
2023-04-17T13:18:36.817Z,25.28
2023-04-17T13:20:36.845Z,25.36
2023-04-17T13:22:36.857Z,25.47
2023-04-17T13:24:36.815Z,25.43
2023-04-17T13:26:37.202Z,25.46
2023-04-17T13:28:36.916Z,25.51
2023-04-17T13:30:37.061Z,25.60
2023-04-17T13:32:36.917Z,25.43
2023-04-17T13:34:36.904Z,25.51
2023-04-17T13:36:36.857Z,25.52
2023-04-17T13:38:36.922Z,25.52
2023-04-17T13:40:36.828Z,25.40
2023-04-17T13:42:36.857Z,25.46
2023-04-17T13:44:36.836Z,25.37
2023-04-17T13:46:36.898Z,25.17
2023-04-17T13:48:36.887Z,25.06
2023-04-17T13:50:36.927Z,24.58
2023-04-17T13:52:36.918Z,24.12
2023-04-17T13:54:36.983Z,23.96
2023-04-17T13:56:36.815Z,24.11
2023-04-17T13:58:37.006Z,24.34
2023-04-17T14:00:36.930Z,24.55
2023-04-17T14:02:37.209Z,24.66
2023-04-17T14:04:37.160Z,24.77
2023-04-17T14:06:36.854Z,24.81
2023-04-17T14:08:36.921Z,24.81
2023-04-17T14:10:36.877Z,25.06
2023-04-17T14:12:36.940Z,25.33
2023-04-17T14:14:36.885Z,25.72
2023-04-17T14:16:36.817Z,25.95
2023-04-17T14:18:36.910Z,26.16
2023-04-17T14:20:36.828Z,26.23
2023-04-17T14:22:36.962Z,26.00
2023-04-17T14:24:36.893Z,25.94
2023-04-17T14:26:36.932Z,25.81
2023-04-17T14:28:36.944Z,25.54
2023-04-17T14:30:36.973Z,25.46
2023-04-17T14:32:37.008Z,25.52
2023-04-17T14:34:36.955Z,25.31
2023-04-17T14:36:36.863Z,25.09
2023-04-17T14:38:36.947Z,25.09
2023-04-17T14:40:36.834Z,24.99
2023-04-17T14:42:47.473Z,25.08
2023-04-17T14:44:36.941Z,25.21
2023-04-17T14:46:37.039Z,25.49
2023-04-17T14:48:47.946Z,25.49
2023-04-17T14:50:37.035Z,25.52
2023-04-17T14:52:37.005Z,25.51
2023-04-17T14:54:36.961Z,25.44
2023-04-17T14:56:37.143Z,25.36
2023-04-17T14:58:36.981Z,25.31
2023-04-17T15:00:37.072Z,25.33
2023-04-17T15:02:37.155Z,25.39
2023-04-17T15:04:38.022Z,25.32
2023-04-17T15:06:36.977Z,25.36
2023-04-17T15:08:36.980Z,24.89
2023-04-17T15:10:47.987Z,24.72
2023-04-17T15:12:36.978Z,24.66
2023-04-17T15:14:36.947Z,24.56
2023-04-17T15:16:37.118Z,24.49
2023-04-17T15:18:36.951Z,25.21
2023-04-17T15:20:36.880Z,24.43
2023-04-17T15:22:37.003Z,24.27
2023-04-17T15:24:36.973Z,24.29
2023-04-17T15:26:36.954Z,24.24
2023-04-17T15:28:37.019Z,24.19
2023-04-17T15:30:37.029Z,24.10
2023-04-17T15:32:37.020Z,24.08
2023-04-17T15:34:36.998Z,24.00
2023-04-17T15:36:36.995Z,23.96
2023-04-17T15:38:37.020Z,24.07
2023-04-17T15:40:36.953Z,24.07
2023-04-17T15:42:37.007Z,24.09
2023-04-17T15:44:37.042Z,24.20
2023-04-17T15:46:37.036Z,23.95
2023-04-17T15:48:36.973Z,24.22
2023-04-17T15:50:37.060Z,24.34
2023-04-17T15:52:37.094Z,24.29
2023-04-17T15:54:37.013Z,24.38
2023-04-17T15:56:37.034Z,24.39
2023-04-17T15:58:37.102Z,24.33
2023-04-17T16:00:37.055Z,24.30
2023-04-17T16:02:37.190Z,24.21
2023-04-17T16:04:37.121Z,24.15
2023-04-17T16:06:36.954Z,24.10
2023-04-17T16:08:37.051Z,24.08
2023-04-17T16:10:36.980Z,24.08
2023-04-17T16:12:37.088Z,24.05
2023-04-17T16:14:36.965Z,24.04
2023-04-17T16:16:37.046Z,24.12
2023-04-17T16:18:37.067Z,24.04
2023-04-17T16:20:37.040Z,23.93
2023-04-17T16:22:37.037Z,24.05
2023-04-17T16:24:37.049Z,24.02
2023-04-17T16:26:37.037Z,24.04
2023-04-17T16:28:37.122Z,24.05
2023-04-17T16:30:37.069Z,23.96
2023-04-17T16:32:37.114Z,23.98
2023-04-17T16:34:37.011Z,24.08
2023-04-17T16:36:36.922Z,24.10
2023-04-17T16:38:37.083Z,24.09
2023-04-17T16:40:37.070Z,23.96
2023-04-17T16:42:37.148Z,24.10
2023-04-17T16:44:37.085Z,23.96
2023-04-17T16:46:52.191Z,23.93
2023-04-17T16:48:37.144Z,23.95
2023-04-17T16:50:37.082Z,23.66
2023-04-17T16:52:37.058Z,23.72
2023-04-17T16:54:37.086Z,23.70
2023-04-17T16:56:37.091Z,23.69
2023-04-17T16:58:37.055Z,23.65
2023-04-17T17:00:37.020Z,23.65
2023-04-17T17:02:37.073Z,23.60
2023-04-17T17:04:37.099Z,23.68
2023-04-17T17:06:37.058Z,23.75
2023-04-17T17:08:37.082Z,23.64
2023-04-17T17:10:37.137Z,23.75
2023-04-17T17:12:37.012Z,23.62
2023-04-17T17:14:37.153Z,23.55
2023-04-17T17:16:37.306Z,23.62
2023-04-17T17:18:37.020Z,23.57
2023-04-17T17:20:37.038Z,23.57
2023-04-17T17:22:37.062Z,23.63
2023-04-17T17:24:37.102Z,23.66
2023-04-17T17:26:37.359Z,24.23
2023-04-17T17:28:37.064Z,23.61
2023-04-17T17:30:37.071Z,23.56
2023-04-17T17:32:37.104Z,23.53
2023-04-17T17:34:37.117Z,23.61
2023-04-17T17:36:37.098Z,23.57
2023-04-17T17:38:37.111Z,23.54
2023-04-17T17:40:37.153Z,23.55
2023-04-17T17:42:37.162Z,23.53
2023-04-17T17:44:37.143Z,23.49
2023-04-17T17:46:37.159Z,23.56
2023-04-17T17:48:37.111Z,23.53
2023-04-17T17:50:37.065Z,23.53
2023-04-17T17:52:37.130Z,23.49
2023-04-17T17:54:37.071Z,23.48
2023-04-17T17:56:37.194Z,23.53
2023-04-17T17:58:37.205Z,23.57
2023-04-17T18:00:37.135Z,23.53
2023-04-17T18:02:37.207Z,23.50
2023-04-17T18:04:37.403Z,23.53
2023-04-17T18:06:37.126Z,23.50
2023-04-17T18:08:37.092Z,23.61
2023-04-17T18:10:37.222Z,23.65
2023-04-17T18:12:37.156Z,23.72
2023-04-17T18:14:37.233Z,23.76
2023-04-17T18:16:37.297Z,23.64
2023-04-17T18:18:37.338Z,23.65
2023-04-17T18:20:37.128Z,23.66
2023-04-17T18:22:37.143Z,23.63
2023-04-17T18:24:37.278Z,23.65
2023-04-17T18:26:37.257Z,23.63
2023-04-17T18:28:37.373Z,23.65
2023-04-17T18:30:37.176Z,23.75
2023-04-17T18:32:37.264Z,23.80
2023-04-17T18:34:37.159Z,23.71
2023-04-17T18:36:37.222Z,23.68
2023-04-17T18:38:37.205Z,23.77
2023-04-17T18:40:37.304Z,23.70
2023-04-17T18:42:37.129Z,23.73
2023-04-17T18:44:37.120Z,26.94
2023-04-17T18:46:37.205Z,26.99
2023-04-17T18:48:37.155Z,27.07
2023-04-17T18:50:37.188Z,27.08
2023-04-17T18:52:37.205Z,27.16
2023-04-17T18:54:37.271Z,27.14
2023-04-17T18:56:37.129Z,26.97
2023-04-17T18:58:37.228Z,27.07
2023-04-17T19:00:37.200Z,27.14
2023-04-17T19:02:37.320Z,27.08
2023-04-17T19:04:37.280Z,27.07
2023-04-17T19:06:37.141Z,27.03
2023-04-17T19:08:37.205Z,27.06
2023-04-17T19:10:38.815Z,27.13
2023-04-17T19:12:37.202Z,27.09
2023-04-17T19:14:37.263Z,25.52
2023-04-17T19:16:37.277Z,25.47
2023-04-17T19:18:37.128Z,25.41
2023-04-17T19:20:37.227Z,25.47
2023-04-17T19:22:37.187Z,25.40
2023-04-17T19:24:37.244Z,25.44
2023-04-17T19:26:37.225Z,25.50
2023-04-17T19:28:37.305Z,25.42
2023-04-17T19:30:37.254Z,25.43
2023-04-17T19:32:37.223Z,25.44
2023-04-17T19:34:37.317Z,25.44
2023-04-17T19:36:37.297Z,25.37
2023-04-17T19:38:37.262Z,25.44
2023-04-17T19:40:37.198Z,25.37
2023-04-17T19:42:37.151Z,25.49
2023-04-17T19:44:37.268Z,25.38
2023-04-17T19:46:37.233Z,25.38
2023-04-17T19:48:37.284Z,25.47
2023-04-17T19:50:37.279Z,25.43
2023-04-17T19:52:37.334Z,25.52
2023-04-17T19:54:37.196Z,25.34
2023-04-17T19:56:37.253Z,25.37
2023-04-17T19:58:37.391Z,25.36
2023-04-17T20:00:37.375Z,25.39
2023-04-17T20:02:37.501Z,25.34
2023-04-17T20:04:37.346Z,25.35
2023-04-17T20:06:37.378Z,25.33
2023-04-17T20:08:37.338Z,25.29
2023-04-17T20:10:37.286Z,25.33
2023-04-17T20:12:37.309Z,25.44
2023-04-17T20:14:37.287Z,25.32
2023-04-17T20:16:37.390Z,25.45
2023-04-17T20:18:37.363Z,25.51
2023-04-17T20:20:37.276Z,25.46
2023-04-17T20:22:37.374Z,25.38
2023-04-17T20:24:37.376Z,25.47
2023-04-17T20:26:37.707Z,25.35
2023-04-17T20:28:37.455Z,25.39
2023-04-17T20:30:37.322Z,25.42
2023-04-17T20:32:37.461Z,25.53
2023-04-17T20:34:37.347Z,25.46
2023-04-17T20:36:37.405Z,25.39
2023-04-17T20:38:37.308Z,25.43
2023-04-17T20:40:37.341Z,25.45
2023-04-17T20:42:37.545Z,25.38
2023-04-17T20:44:37.833Z,25.38
2023-04-17T20:46:37.484Z,25.37
2023-04-17T20:48:37.389Z,25.42
2023-04-17T20:50:37.283Z,25.42
2023-04-17T20:52:37.287Z,25.42
2023-04-17T20:54:37.394Z,25.39
2023-04-17T20:56:37.370Z,25.52
2023-04-17T20:58:37.332Z,25.43
2023-04-17T21:00:40.157Z,25.43
2023-04-17T21:02:37.470Z,25.42
2023-04-17T21:04:37.376Z,25.40
2023-04-17T21:06:37.329Z,25.42
2023-04-17T21:08:37.363Z,25.51
2023-04-17T21:10:37.317Z,25.47
2023-04-17T21:12:37.410Z,25.51
2023-04-17T21:14:37.407Z,25.45
2023-04-17T21:16:37.244Z,25.52
2023-04-17T21:18:37.362Z,25.51
2023-04-17T21:20:37.429Z,25.47
2023-04-17T21:22:37.417Z,25.51
2023-04-17T21:24:37.321Z,25.50
2023-04-17T21:26:37.270Z,25.52
2023-04-17T21:28:37.324Z,25.52
2023-04-17T21:30:37.333Z,25.52
2023-04-17T21:32:37.414Z,25.53
2023-04-17T21:34:37.249Z,25.49
2023-04-17T21:36:37.421Z,25.52
2023-04-17T21:38:37.343Z,25.52
2023-04-17T21:40:37.481Z,25.52
2023-04-17T21:42:37.413Z,25.58
2023-04-17T21:44:37.411Z,25.52
2023-04-17T21:46:37.396Z,25.52
2023-04-17T21:48:37.381Z,25.51
2023-04-17T21:50:37.406Z,25.52
2023-04-17T21:52:37.385Z,25.51
2023-04-17T21:54:37.411Z,25.52
2023-04-17T21:56:37.328Z,25.51
2023-04-17T21:58:37.408Z,25.58
2023-04-17T22:00:37.359Z,25.52
2023-04-17T22:02:37.556Z,25.52
2023-04-17T22:04:37.442Z,25.52
2023-04-17T22:06:37.418Z,25.52
2023-04-17T22:08:37.275Z,25.61
2023-04-17T22:10:37.429Z,25.52
2023-04-17T22:12:37.411Z,25.52
2023-04-17T22:14:37.462Z,25.52
2023-04-17T22:16:37.443Z,25.52
2023-04-17T22:18:37.303Z,25.53
2023-04-17T22:20:37.422Z,25.52
2023-04-17T22:22:37.382Z,25.58
2023-04-17T22:24:37.458Z,25.58
2023-04-17T22:26:37.467Z,25.58
2023-04-17T22:28:37.422Z,25.52
2023-04-17T22:30:37.519Z,25.47
2023-04-17T22:32:37.492Z,25.52
2023-04-17T22:34:37.501Z,25.54
2023-04-17T22:36:37.480Z,25.51
2023-04-17T22:38:37.464Z,25.46
2023-04-17T22:40:37.375Z,25.46
2023-04-17T22:42:37.431Z,25.43
2023-04-17T22:44:37.354Z,25.47
2023-04-17T22:46:37.543Z,25.52
2023-04-17T22:48:37.372Z,25.60
2023-04-17T22:50:37.442Z,25.57
2023-04-17T22:52:37.449Z,25.56
2023-04-17T22:54:37.349Z,25.52
2023-04-17T22:56:37.444Z,25.29
2023-04-17T22:58:37.468Z,25.52
2023-04-17T23:00:37.438Z,25.57
2023-04-17T23:02:37.591Z,25.47
2023-04-17T23:04:37.440Z,25.51
2023-04-17T23:06:37.481Z,25.52
2023-04-17T23:08:37.316Z,25.49
2023-04-17T23:10:37.529Z,25.47
2023-04-17T23:12:37.408Z,25.38
2023-04-17T23:14:37.468Z,25.40
2023-04-17T23:16:37.516Z,25.42
2023-04-17T23:18:37.456Z,25.45
2023-04-17T23:20:37.431Z,25.50
2023-04-17T23:22:37.563Z,25.43
2023-04-17T23:24:37.501Z,25.50
2023-04-17T23:26:37.495Z,25.49
2023-04-17T23:28:37.510Z,25.48
2023-04-17T23:30:37.450Z,25.47
2023-04-17T23:32:37.525Z,25.52
2023-04-17T23:34:37.440Z,25.49
2023-04-17T23:36:37.447Z,25.50
2023-04-17T23:38:37.607Z,25.45
2023-04-17T23:40:37.515Z,25.54
2023-04-17T23:42:37.490Z,25.47
2023-04-17T23:44:37.545Z,25.53
2023-04-17T23:46:37.539Z,25.56
2023-04-17T23:48:37.538Z,25.57
2023-04-17T23:50:37.526Z,25.52
2023-04-17T23:52:37.453Z,25.52
2023-04-17T23:54:37.548Z,25.50
2023-04-17T23:56:37.344Z,25.51
2023-04-17T23:58:37.431Z,25.56
